Address 0xcfbb1bfa710cb2eba070cc3bec0c35226fea4baf 7

 
 
Txn Hash Method
Block
From
To
Value [Txn Fee]
0x71058ccee67e7e09da4a3d73c305ea8b796794b435188da262638c7e80927c6dTransfer*217455742021-11-24 12:46:30220 days 1 hr ago0x487944d8d5c5ce50600967d9c47982e73708de59 IN 0xcfbb1bfa710cb2eba070cc3bec0c35226fea4baf0 MATIC0.000646830
0xa76afd6f0ff20bffe2fee09845054973e1d42b864de0750a4743eec41d5ca58dTransfer*217455702021-11-24 12:46:22220 days 1 hr ago0x487944d8d5c5ce50600967d9c47982e73708de59 IN 0xcfbb1bfa710cb2eba070cc3bec0c35226fea4baf0 MATIC0.000646830
0x78c1cf2d36b38274d376ffa1f5c20bf72d235865af7d55729bdd9100f30366b2Transfer*217455242021-11-24 12:44:46220 days 1 hr ago0x487944d8d5c5ce50600967d9c47982e73708de59 IN 0xcfbb1bfa710cb2eba070cc3bec0c35226fea4baf0 MATIC0.000646830
0xcc1498e0af13011f0461fb2855ab847114ff267c581b83ad6fd39e7c607d5735Transfer*217455202021-11-24 12:44:38220 days 1 hr ago0x487944d8d5c5ce50600967d9c47982e73708de59 IN 0xcfbb1bfa710cb2eba070cc3bec0c35226fea4baf0 MATIC0.000646830
0x7f580a7b9ace1d618cbf1f10d8aa9a2ef519fbec37c077630ce82e060ca4f0c4Transfer*217455142021-11-24 12:44:26220 days 1 hr ago0x487944d8d5c5ce50600967d9c47982e73708de59 IN 0xcfbb1bfa710cb2eba070cc3bec0c35226fea4baf0 MATIC0.000646830
0xaf6ba3124f0d279c88d50449f4030618f15da5fec021eef9596a1789135ba1d5Transfer*217452122021-11-24 12:34:02220 days 1 hr ago0x487944d8d5c5ce50600967d9c47982e73708de59 IN 0xcfbb1bfa710cb2eba070cc3bec0c35226fea4baf0 MATIC0.000646830
0x43624db6c23e7d16869cd496857ca193e0f95b13bfb579e66d59c2e512862cfeTransfer*217452082021-11-24 12:33:54220 days 1 hr ago0x487944d8d5c5ce50600967d9c47982e73708de59 IN 0xcfbb1bfa710cb2eba070cc3bec0c35226fea4baf0 MATIC0.000646830
0xabaa9cdb099168f98af4b84c15ce2552eafde27e6ea3ea9237ac1a3a2ad8e7d9Transfer*217452032021-11-24 12:33:44220 days 1 hr ago0x487944d8d5c5ce50600967d9c47982e73708de59 IN 0xcfbb1bfa710cb2eba070cc3bec0c35226fea4baf0 MATIC0.000646830
0x1456913ef13276c836c30773fcce5a633e17b651813148c95adfc403133bd1feTransfer*217451842021-11-24 12:33:06220 days 1 hr ago0x487944d8d5c5ce50600967d9c47982e73708de59 IN 0xcfbb1bfa710cb2eba070cc3bec0c35226fea4baf0 MATIC0.000646830
0x6fda046f3e7fa37acf0df728ee47498d2967284ba2645833dbaa0264f6e83fd9Transfer*217451642021-11-24 12:32:26220 days 1 hr ago0x487944d8d5c5ce50600967d9c47982e73708de59 IN 0xcfbb1bfa710cb2eba070cc3bec0c35226fea4baf0 MATIC0.000646830
0x75785d6335640be32b592758a9e043e609a35b6ee70132e1b3be351411e25e93Transfer*210194142021-11-05 17:22:59238 days 20 hrs ago0x7bc611e284928918471b1d14182ac861b1568ec9 IN 0xcfbb1bfa710cb2eba070cc3bec0c35226fea4baf0 MATIC0.0006899232
0x1b16c74915c1c673c95524a443f52fb9a58c459b4d2ecfbe4883a3a41a7ca363Transfer*210194142021-11-05 17:22:59238 days 20 hrs ago0x7bc611e284928918471b1d14182ac861b1568ec9 IN 0xcfbb1bfa710cb2eba070cc3bec0c35226fea4baf0 MATIC0.0006683631
0x374250fefdc544b8a0843ec50443da84cc3e4613346c1f5136021209de9a4684Transfer*210194072021-11-05 17:22:17238 days 20 hrs ago0x7bc611e284928918471b1d14182ac861b1568ec9 IN 0xcfbb1bfa710cb2eba070cc3bec0c35226fea4baf0 MATIC0.0006683631
0xcb4621191aeefa7365a744071605b0ceac80b7989154c6998ae1eb8502421a7dTransfer*210190722021-11-05 17:09:43238 days 20 hrs ago0x7bc611e284928918471b1d14182ac861b1568ec9 IN 0xcfbb1bfa710cb2eba070cc3bec0c35226fea4baf0 MATIC0.0006683631
0x0103e9165aaefda0770fea021f5b0ddcf7003d5d7ce31206bf5d4c33b753b145Transfer*210190322021-11-05 17:08:19238 days 21 hrs ago0x7bc611e284928918471b1d14182ac861b1568ec9 IN 0xcfbb1bfa710cb2eba070cc3bec0c35226fea4baf0 MATIC0.0006683631
0xfafb7fcb3dc9406587d5a6e5e7cd9dc555cff1224b29100a552856281c1c48c7Transfer*210190242021-11-05 17:08:03238 days 21 hrs ago0x7bc611e284928918471b1d14182ac861b1568ec9 IN 0xcfbb1bfa710cb2eba070cc3bec0c35226fea4baf0 MATIC0.0006683631
0xe4b74cd8501574a4d70fd54e463a2e9aaea3d7d6243cd40516bd394e4213fbb2Transfer*210189532021-11-05 17:05:37238 days 21 hrs ago0x7bc611e284928918471b1d14182ac861b1568ec9 IN 0xcfbb1bfa710cb2eba070cc3bec0c35226fea4baf0 MATIC0.0006899232
0x751a196bd8aba93524c66fbaf6fc1ed86247759f390c94b271d8eefa61d208d1Transfer*208478042021-11-01 6:37:53243 days 7 hrs ago0x39b73040e91d6fe36841820c603958af2d686868 IN 0xcfbb1bfa710cb2eba070cc3bec0c35226fea4baf0 MATIC0.000108345
0xe59f7b45740ad97cb27f2d97adc3efdf602a64dcc8c92ecea14331dd8d6e9403Transfer*202750942021-10-16 10:53:25259 days 3 hrs ago0x1f52c4dd6c8ed77ca7a51bb323a7557a759befbd IN 0xcfbb1bfa710cb2eba070cc3bec0c35226fea4baf0 MATIC0.000646830
0x052570aac27d6816942f2228b8656934187fb6e871c87e58bfced37dbaebba8dTransfer*202750702021-10-16 10:52:31259 days 3 hrs ago0x1f52c4dd6c8ed77ca7a51bb323a7557a759befbd IN 0xcfbb1bfa710cb2eba070cc3bec0c35226fea4baf0 MATIC0.000646830
0x3938f132d251508980ed17d628b2d349b77ddec5ef301689d7a8dbef6f08dfcdTransfer*194084642021-09-23 4:43:38282 days 9 hrs ago0x0eedb7c5e10d31bab7274ec3b1993a1188852363 IN 0xcfbb1bfa710cb2eba070cc3bec0c35226fea4baf0 MATIC0.000194049
0xfd8a6a6a22ff9e49351d9a92201b81c81cf02fcb5ae43c83e8db4c86627cf656Transfer*192252872021-09-18 2:46:40287 days 11 hrs ago0x7dbbae2659ee97181678f83e8cf5c0887a91fad8 IN 0xcfbb1bfa710cb2eba070cc3bec0c35226fea4baf0 MATIC0.0000607856842.819373144
0x6bb97d8195a947252ad57973305c6bd4846d7258efbd98bf33f2d80faa829d44Transfer*188181772021-09-06 17:52:06298 days 20 hrs ago0x4836d33c3e237ae9c1ffe20732030c5cddab9943 IN 0xcfbb1bfa710cb2eba070cc3bec0c35226fea4baf0 MATIC0.000108345
[ Download CSV Export 
Parent Txn Hash Block From To Value
Loading

Contract Name:
0 MATIC

Compiler Version
0

Optimization Enabled:
0 MATIC

Other Settings:
-NA-
Block Transaction Gas Used Reward
Age Block Fee Address BC Fee Address Voting Power Jailed Incoming
Block Uncle Number Difficulty Gas Used Reward
Loading
Loading
Make sure to use the "Vote Down" button for any spammy posts, and the "Vote Up" for interesting conversations.